createdAt,value
2022-11-16T00:02:18.743Z,10.80
2022-11-16T00:04:45.683Z,10.80
2022-11-16T00:07:12.670Z,10.90
2022-11-16T00:09:39.603Z,10.80
2022-11-16T00:12:08.786Z,10.90
2022-11-16T00:14:36.145Z,10.90
2022-11-16T00:17:03.784Z,10.90
2022-11-16T00:19:30.964Z,10.90
2022-11-16T00:21:58.157Z,10.90
2022-11-16T00:24:25.099Z,10.90
2022-11-16T00:26:54.150Z,10.90
2022-11-16T00:29:24.065Z,10.90
2022-11-16T00:31:51.580Z,10.90
2022-11-16T00:34:18.597Z,10.90
2022-11-16T00:36:45.973Z,10.90
2022-11-16T00:39:13.909Z,10.90
2022-11-16T00:41:41.331Z,10.90
2022-11-16T00:44:08.195Z,10.90
2022-11-16T00:46:35.073Z,10.90
2022-11-16T00:49:01.969Z,10.90
2022-11-16T00:51:28.886Z,11.00
2022-11-16T00:53:55.839Z,11.00
2022-11-16T00:56:22.929Z,10.90
2022-11-16T00:58:49.887Z,11.00
2022-11-16T01:01:16.904Z,11.00
2022-11-16T01:03:43.970Z,11.00
2022-11-16T01:06:13.708Z,10.90
2022-11-16T01:08:41.718Z,11.00
2022-11-16T01:11:28.099Z,11.00
2022-11-16T01:13:55.465Z,11.00
2022-11-16T01:16:23.282Z,11.00
2022-11-16T01:18:54.295Z,11.00
2022-11-16T01:21:22.586Z,11.00
2022-11-16T01:23:49.566Z,11.00
2022-11-16T01:26:16.748Z,11.00
2022-11-16T01:28:43.690Z,11.00
2022-11-16T01:31:10.659Z,11.00
2022-11-16T01:33:37.791Z,11.00
2022-11-16T01:36:10.705Z,11.00
2022-11-16T01:38:37.649Z,11.00
2022-11-16T01:41:04.529Z,11.00
2022-11-16T01:43:49.255Z,11.00
2022-11-16T01:46:16.683Z,11.00
2022-11-16T01:48:43.688Z,11.00
2022-11-16T01:51:10.604Z,11.00
2022-11-16T01:53:37.484Z,11.00
2022-11-16T01:56:04.708Z,11.00
2022-11-16T01:58:31.848Z,11.00
2022-11-16T02:03:44.515Z,11.00
2022-11-16T02:06:20.341Z,11.00
2022-11-16T02:09:29.825Z,11.00
2022-11-16T02:12:43.015Z,11.00
2022-11-16T02:15:09.907Z,11.00
2022-11-16T02:17:44.953Z,11.00
2022-11-16T02:20:37.993Z,11.00
2022-11-16T02:23:07.792Z,11.00
2022-11-16T02:26:05.595Z,11.10
2022-11-16T02:29:10.214Z,11.10
2022-11-16T02:31:38.159Z,11.00
2022-11-16T02:34:05.555Z,11.10
2022-11-16T02:36:32.438Z,11.10
2022-11-16T02:39:02.471Z,11.10
2022-11-16T02:41:32.848Z,11.10
2022-11-16T02:44:05.111Z,11.10
2022-11-16T02:46:36.380Z,11.10
2022-11-16T02:49:04.040Z,11.10
2022-11-16T02:51:30.998Z,11.10
2022-11-16T02:54:03.265Z,11.10
2022-11-16T02:56:30.479Z,11.10
2022-11-16T02:58:58.400Z,11.10
2022-11-16T03:01:28.112Z,11.10
2022-11-16T03:03:58.412Z,11.00
2022-11-16T03:06:30.457Z,11.10
2022-11-16T03:09:00.714Z,11.10
2022-11-16T03:11:46.071Z,11.10
2022-11-16T03:14:15.870Z,11.10
2022-11-16T03:16:48.946Z,11.00
2022-11-16T03:19:18.923Z,11.10
2022-11-16T03:21:48.952Z,11.10
2022-11-16T03:24:15.952Z,11.00
2022-11-16T03:26:51.757Z,11.10
2022-11-16T03:29:27.292Z,11.10
2022-11-16T03:31:57.201Z,11.10
2022-11-16T03:34:26.310Z,11.00
2022-11-16T03:36:56.026Z,11.00
2022-11-16T03:39:26.008Z,11.10
2022-11-16T03:41:52.911Z,11.10
2022-11-16T03:44:19.790Z,11.10
2022-11-16T03:46:46.737Z,11.10
2022-11-16T03:49:13.637Z,11.10
2022-11-16T03:51:40.519Z,11.10
2022-11-16T03:54:07.432Z,11.10
2022-11-16T03:56:34.307Z,11.10
2022-11-16T03:59:01.221Z,11.10
2022-11-16T04:01:28.148Z,11.10
2022-11-16T04:03:55.091Z,11.10
2022-11-16T04:06:40.864Z,11.10
2022-11-16T04:09:27.872Z,11.10
2022-11-16T04:12:13.216Z,11.10
2022-11-16T04:14:58.767Z,11.10
2022-11-16T04:17:44.399Z,11.10
2022-11-16T04:20:31.756Z,11.10
2022-11-16T04:23:35.341Z,11.10
2022-11-16T04:26:02.385Z,11.10
2022-11-16T04:28:30.497Z,11.10
2022-11-16T04:31:17.792Z,11.10
2022-11-16T04:34:03.100Z,11.10
2022-11-16T04:36:48.931Z,11.10
2022-11-16T04:39:15.859Z,11.10
2022-11-16T04:42:01.401Z,11.10
2022-11-16T04:44:51.073Z,11.10
2022-11-16T04:47:17.941Z,11.10
2022-11-16T04:49:44.840Z,11.10
2022-11-16T04:52:11.902Z,11.10
2022-11-16T04:54:38.800Z,11.10
2022-11-16T04:57:05.761Z,11.10
2022-11-16T04:59:32.664Z,11.10
2022-11-16T05:02:08.453Z,11.10
2022-11-16T05:04:41.156Z,11.10
2022-11-16T05:07:12.508Z,11.10
2022-11-16T05:09:49.688Z,11.10
2022-11-16T05:12:21.594Z,11.10
2022-11-16T05:14:51.516Z,11.10
2022-11-16T05:17:19.239Z,11.10
2022-11-16T05:20:04.674Z,11.10
2022-11-16T05:22:31.625Z,11.10
2022-11-16T05:24:58.740Z,11.00
2022-11-16T05:27:26.889Z,11.00
2022-11-16T05:29:55.058Z,11.00
2022-11-16T05:32:22.679Z,11.00
2022-11-16T05:34:49.801Z,11.00
2022-11-16T05:37:17.079Z,11.00
2022-11-16T05:39:44.019Z,10.90
2022-11-16T05:42:10.905Z,10.90
2022-11-16T05:44:37.815Z,11.00
2022-11-16T05:47:04.863Z,10.90
2022-11-16T05:49:31.803Z,10.90
2022-11-16T05:51:58.756Z,10.90
2022-11-16T05:54:26.847Z,10.90
2022-11-16T05:56:54.297Z,10.90
2022-11-16T05:59:22.014Z,10.90
2022-11-16T06:01:49.689Z,10.90
2022-11-16T06:06:57.814Z,10.80
2022-11-16T06:09:24.856Z,10.80
2022-11-16T06:11:51.770Z,10.70
2022-11-16T06:14:19.081Z,10.80
2022-11-16T06:16:45.971Z,10.80
2022-11-16T06:19:12.851Z,10.80
2022-11-16T06:21:39.815Z,10.70
2022-11-16T06:24:09.220Z,10.70
2022-11-16T06:26:36.618Z,10.70
2022-11-16T06:29:03.593Z,10.70
2022-11-16T06:31:30.504Z,10.70
2022-11-16T06:33:57.426Z,10.70
2022-11-16T06:36:24.329Z,10.70
2022-11-16T06:38:51.293Z,10.70
2022-11-16T06:41:18.180Z,10.70
2022-11-16T06:43:45.201Z,10.60
2022-11-16T06:46:12.171Z,10.60
2022-11-16T06:48:39.059Z,10.60
2022-11-16T06:51:06.038Z,10.50
2022-11-16T06:53:32.920Z,10.50
2022-11-16T06:56:04.803Z,10.50
2022-11-16T06:58:32.603Z,10.50
2022-11-16T07:01:10.881Z,10.50
2022-11-16T07:03:38.144Z,10.50
2022-11-16T07:06:15.004Z,10.50
2022-11-16T07:08:41.983Z,10.50
2022-11-16T07:11:09.584Z,10.50
2022-11-16T07:13:37.519Z,10.50
2022-11-16T07:16:08.787Z,10.40
2022-11-16T07:18:37.695Z,10.40
2022-11-16T07:21:12.535Z,10.40
2022-11-16T07:23:39.807Z,10.40
2022-11-16T07:26:07.463Z,10.40
2022-11-16T07:28:34.679Z,10.40
2022-11-16T07:31:09.550Z,10.40
2022-11-16T07:33:36.888Z,10.30
2022-11-16T07:36:13.820Z,10.30
2022-11-16T07:38:40.824Z,10.40
2022-11-16T07:41:09.900Z,10.40
2022-11-16T07:44:06.435Z,10.30
2022-11-16T07:46:48.595Z,10.20
2022-11-16T07:49:26.401Z,10.20
2022-11-16T07:51:53.361Z,10.20
2022-11-16T07:57:34.697Z,10.20
2022-11-16T07:59:58.397Z,10.10
2022-11-16T08:02:25.731Z,10.10
2022-11-16T08:04:52.676Z,10.10
2022-11-16T08:07:19.594Z,10.10
2022-11-16T08:09:46.608Z,10.10
2022-11-16T08:12:13.527Z,10.10
2022-11-16T08:14:40.415Z,10.10
2022-11-16T08:17:10.361Z,10.10
2022-11-16T08:19:37.315Z,10.20
2022-11-16T08:22:04.199Z,10.10
2022-11-16T08:25:00.870Z,10.20
2022-11-16T08:27:28.647Z,10.20
2022-11-16T08:29:56.613Z,10.20
2022-11-16T08:32:23.516Z,10.30
2022-11-16T08:34:50.398Z,10.20
2022-11-16T08:37:17.718Z,10.20
2022-11-16T08:39:44.843Z,10.30
2022-11-16T08:42:11.809Z,10.20
2022-11-16T08:44:38.721Z,10.20
2022-11-16T08:47:05.686Z,10.30
2022-11-16T08:49:32.644Z,10.30
2022-11-16T08:51:59.563Z,10.40
2022-11-16T08:54:28.699Z,10.20
2022-11-16T08:56:58.260Z,10.30
2022-11-16T08:59:26.639Z,10.30
2022-11-16T09:01:53.631Z,10.30
2022-11-16T09:04:20.614Z,10.30
2022-11-16T09:06:47.948Z,10.20
2022-11-16T09:09:21.372Z,10.20
2022-11-16T09:11:48.371Z,10.20
2022-11-16T09:14:15.304Z,10.20
2022-11-16T09:16:42.203Z,10.30
2022-11-16T09:19:09.176Z,10.30
2022-11-16T09:21:38.540Z,10.60
2022-11-16T09:28:34.264Z,10.60
2022-11-16T09:31:04.137Z,10.50
2022-11-16T09:33:31.432Z,10.60
2022-11-16T09:36:02.845Z,10.70
2022-11-16T09:38:40.693Z,10.70
2022-11-16T09:41:16.647Z,10.60
2022-11-16T09:43:54.825Z,10.60
2022-11-16T09:46:36.565Z,10.60
2022-11-16T09:49:17.224Z,10.70
2022-11-16T09:51:50.349Z,10.70
2022-11-16T09:54:19.442Z,10.60
2022-11-16T09:56:46.895Z,10.60
2022-11-16T09:59:24.842Z,10.80
2022-11-16T10:01:54.641Z,10.70
2022-11-16T10:04:29.996Z,10.70
2022-11-16T10:07:06.578Z,10.60
2022-11-16T10:09:33.465Z,10.70
2022-11-16T10:12:05.542Z,10.70
2022-11-16T10:14:51.808Z,10.70
2022-11-16T10:17:27.839Z,10.60
2022-11-16T10:20:36.484Z,10.60
2022-11-16T10:23:24.794Z,10.70
2022-11-16T10:26:21.662Z,10.90
2022-11-16T10:29:05.187Z,10.70
2022-11-16T10:31:53.146Z,10.70
2022-11-16T10:34:28.503Z,10.80
2022-11-16T10:36:58.448Z,10.70
2022-11-16T10:39:27.906Z,10.70
2022-11-16T10:41:54.809Z,10.70
2022-11-16T10:44:53.929Z,10.80
2022-11-16T10:47:34.162Z,10.80
2022-11-16T10:50:21.134Z,10.90
2022-11-16T10:52:48.897Z,11.00
2022-11-16T10:55:16.132Z,11.00
2022-11-16T10:58:12.318Z,10.90
2022-11-16T11:00:48.398Z,10.90
2022-11-16T11:03:15.452Z,10.90
2022-11-16T11:05:52.554Z,11.10
2022-11-16T11:08:32.889Z,11.10
2022-11-16T11:11:21.744Z,11.00
2022-11-16T11:14:04.726Z,11.10
2022-11-16T11:16:31.635Z,11.10
2022-11-16T11:19:05.923Z,11.20
2022-11-16T11:21:38.255Z,11.10
2022-11-16T11:24:43.325Z,11.00
2022-11-16T11:27:02.665Z,11.10
2022-11-16T11:29:37.672Z,11.10
2022-11-16T11:32:06.659Z,11.20
2022-11-16T11:34:40.040Z,11.20
2022-11-16T11:37:07.855Z,11.30
2022-11-16T11:39:36.582Z,11.30
2022-11-16T11:42:12.535Z,11.20
2022-11-16T11:45:06.476Z,11.20
2022-11-16T11:47:59.114Z,11.10
2022-11-16T11:50:48.858Z,11.10
2022-11-16T11:53:37.768Z,11.10
2022-11-16T11:56:04.845Z,11.00
2022-11-16T11:58:33.532Z,11.10
2022-11-16T12:01:24.898Z,11.20
2022-11-16T12:04:12.676Z,11.20
2022-11-16T12:06:57.955Z,11.40
2022-11-16T12:09:30.253Z,11.40
2022-11-16T12:12:14.707Z,11.30
2022-11-16T12:15:10.571Z,11.40
2022-11-16T12:17:43.582Z,11.40
2022-11-16T12:20:19.598Z,11.50
2022-11-16T12:23:16.309Z,11.50
2022-11-16T12:25:50.136Z,11.50
2022-11-16T12:28:35.709Z,11.50
2022-11-16T12:31:21.365Z,11.60
2022-11-16T12:34:42.242Z,11.60
2022-11-16T12:37:23.232Z,11.70
2022-11-16T12:39:59.545Z,11.60
2022-11-16T12:42:47.900Z,11.70
2022-11-16T12:45:21.890Z,11.70
2022-11-16T12:48:21.073Z,11.60
2022-11-16T12:51:08.656Z,11.70
2022-11-16T12:53:47.800Z,11.70
2022-11-16T12:56:20.925Z,11.70
2022-11-16T12:59:01.698Z,11.70
2022-11-16T13:01:38.974Z,11.70
2022-11-16T13:04:21.030Z,11.70
2022-11-16T13:06:57.057Z,11.80
2022-11-16T13:09:29.764Z,11.90
2022-11-16T13:12:14.158Z,11.80
2022-11-16T13:14:48.844Z,11.80
2022-11-16T13:17:27.403Z,11.60
2022-11-16T13:20:14.227Z,11.50
2022-11-16T13:22:45.010Z,11.60
2022-11-16T13:25:19.578Z,11.50
2022-11-16T13:27:53.533Z,11.60
2022-11-16T13:30:22.892Z,11.60
2022-11-16T13:33:15.417Z,11.60
2022-11-16T13:35:42.551Z,11.50
2022-11-16T13:38:15.833Z,11.60
2022-11-16T13:40:42.799Z,11.70
2022-11-16T13:43:09.537Z,11.80
2022-11-16T13:45:57.208Z,11.80
2022-11-16T13:48:37.717Z,11.80
2022-11-16T13:51:06.487Z,11.80
2022-11-16T13:56:28.938Z,11.80
2022-11-16T13:58:59.155Z,11.80
2022-11-16T14:01:27.358Z,11.80
2022-11-16T14:04:32.461Z,11.70
2022-11-16T14:06:59.887Z,11.70
2022-11-16T14:10:05.648Z,11.60
2022-11-16T14:12:39.454Z,11.60
2022-11-16T14:15:16.032Z,11.60
2022-11-16T14:18:00.361Z,11.60
2022-11-16T14:20:34.738Z,11.50
2022-11-16T14:23:01.585Z,11.40
2022-11-16T14:25:55.807Z,11.40
2022-11-16T14:28:56.973Z,11.40
2022-11-16T14:31:50.710Z,11.40
2022-11-16T14:34:20.115Z,11.40
2022-11-16T14:36:47.280Z,11.30
2022-11-16T14:39:43.643Z,11.30
2022-11-16T14:42:22.025Z,11.30
2022-11-16T14:44:49.236Z,11.30
2022-11-16T14:47:29.596Z,11.30
2022-11-16T14:49:57.169Z,11.20
2022-11-16T14:52:36.729Z,11.10
2022-11-16T14:55:09.894Z,11.10
2022-11-16T14:57:36.774Z,11.00
2022-11-16T15:00:33.231Z,11.00
2022-11-16T15:03:02.817Z,11.00
2022-11-16T15:05:34.331Z,11.00
2022-11-16T15:08:01.452Z,11.00
2022-11-16T15:10:28.801Z,11.00
2022-11-16T15:13:00.836Z,11.00
2022-11-16T15:15:29.448Z,11.00
2022-11-16T15:17:59.151Z,11.00
2022-11-16T15:20:27.791Z,11.00
2022-11-16T15:22:58.344Z,11.00
2022-11-16T15:25:28.461Z,11.00
2022-11-16T15:27:56.865Z,11.00
2022-11-16T15:30:29.341Z,10.90
2022-11-16T15:32:57.124Z,10.90
2022-11-16T15:35:31.495Z,10.90
2022-11-16T15:38:20.589Z,10.80
2022-11-16T15:41:01.599Z,10.80
2022-11-16T15:43:44.835Z,10.60
2022-11-16T15:46:16.841Z,10.60
2022-11-16T15:48:43.756Z,10.50
2022-11-16T15:51:10.551Z,10.50
2022-11-16T15:53:41.055Z,10.40
2022-11-16T15:56:26.141Z,10.30
2022-11-16T15:58:54.163Z,10.30
2022-11-16T16:01:21.470Z,10.20
2022-11-16T16:03:57.952Z,10.30
2022-11-16T16:06:48.412Z,10.10
2022-11-16T16:09:27.100Z,10.10
2022-11-16T16:12:14.417Z,10.10
2022-11-16T16:14:41.304Z,9.90
2022-11-16T16:17:08.878Z,9.90
2022-11-16T16:19:45.387Z,9.90
2022-11-16T16:22:28.238Z,10.00
2022-11-16T16:24:55.411Z,9.90
2022-11-16T16:27:27.309Z,9.90
2022-11-16T16:29:55.918Z,9.80
2022-11-16T16:32:29.466Z,9.60
2022-11-16T16:34:58.125Z,9.60
2022-11-16T16:37:29.863Z,9.70
2022-11-16T16:39:57.434Z,9.60
2022-11-16T16:42:24.473Z,9.60
2022-11-16T16:44:51.432Z,9.70
2022-11-16T16:47:20.802Z,9.60
2022-11-16T16:49:50.926Z,9.50
2022-11-16T16:52:17.853Z,9.60
2022-11-16T16:54:44.833Z,9.60
2022-11-16T16:57:18.137Z,9.60
2022-11-16T16:59:45.788Z,9.60
2022-11-16T17:02:12.922Z,9.60
2022-11-16T17:04:40.215Z,9.60
2022-11-16T17:07:07.208Z,9.40
2022-11-16T17:09:34.121Z,9.40
2022-11-16T17:12:01.055Z,9.50
2022-11-16T17:14:27.950Z,9.50
2022-11-16T17:16:54.845Z,9.60
2022-11-16T17:19:24.459Z,9.50
2022-11-16T17:21:52.130Z,9.40
2022-11-16T17:24:19.499Z,9.40
2022-11-16T17:26:49.283Z,9.40
2022-11-16T17:29:16.633Z,9.40
2022-11-16T17:31:44.921Z,9.40
2022-11-16T17:34:13.732Z,9.40
2022-11-16T17:36:41.851Z,9.40
2022-11-16T17:39:08.936Z,9.40
2022-11-16T17:41:35.902Z,9.30
2022-11-16T17:44:03.328Z,9.40
2022-11-16T17:46:30.223Z,9.20
2022-11-16T17:48:57.222Z,9.30
2022-11-16T17:51:25.401Z,9.30
2022-11-16T17:53:52.630Z,9.30
2022-11-16T17:56:21.810Z,9.30
2022-11-16T17:58:50.285Z,9.30
2022-11-16T18:01:17.639Z,9.30
2022-11-16T18:03:45.098Z,9.30
2022-11-16T18:06:14.234Z,9.30
2022-11-16T18:08:41.833Z,9.30
2022-11-16T18:11:13.934Z,9.30
2022-11-16T18:13:41.058Z,9.30
2022-11-16T18:16:10.494Z,9.20
2022-11-16T18:18:38.498Z,9.30
2022-11-16T18:21:06.238Z,9.30
2022-11-16T18:23:36.102Z,9.20
2022-11-16T18:26:10.266Z,9.20
2022-11-16T18:28:37.423Z,9.10
2022-11-16T18:31:11.810Z,8.90
2022-11-16T18:33:41.885Z,8.90
2022-11-16T18:36:12.494Z,8.80
2022-11-16T18:38:39.438Z,8.90
2022-11-16T18:41:12.303Z,8.90
2022-11-16T18:44:01.022Z,8.80
2022-11-16T18:46:31.921Z,8.80
2022-11-16T18:49:02.003Z,8.80
2022-11-16T18:51:29.339Z,8.90
2022-11-16T18:53:59.493Z,8.80
2022-11-16T18:56:29.307Z,8.90
2022-11-16T18:58:56.554Z,8.80
2022-11-16T19:01:26.233Z,8.80
2022-11-16T19:03:53.885Z,8.90
2022-11-16T19:06:21.464Z,8.90
2022-11-16T19:08:55.813Z,8.90
2022-11-16T19:11:23.931Z,8.90
2022-11-16T19:13:56.996Z,9.00
2022-11-16T19:16:24.304Z,9.10
2022-11-16T19:18:51.341Z,9.10
2022-11-16T19:21:24.057Z,9.10
2022-11-16T19:23:54.365Z,9.10
2022-11-16T19:26:27.160Z,9.10
2022-11-16T19:28:54.140Z,9.10
2022-11-16T19:31:29.223Z,9.00
2022-11-16T19:34:04.461Z,9.00
2022-11-16T19:36:31.829Z,9.10
2022-11-16T19:39:00.159Z,9.10
2022-11-16T19:41:27.700Z,9.10
2022-11-16T19:43:57.526Z,9.10
2022-11-16T19:46:24.941Z,9.00
2022-11-16T19:48:52.046Z,9.00
2022-11-16T19:51:27.427Z,9.10
2022-11-16T19:53:54.821Z,9.10
2022-11-16T19:56:22.604Z,9.10
2022-11-16T19:58:49.708Z,9.10
2022-11-16T20:01:20.891Z,9.10
2022-11-16T20:03:49.053Z,9.20
2022-11-16T20:06:24.140Z,9.10
2022-11-16T20:08:53.191Z,9.10
2022-11-16T20:11:21.436Z,9.10
2022-11-16T20:13:49.333Z,9.10
2022-11-16T20:16:17.786Z,9.20
2022-11-16T20:18:44.923Z,9.20
2022-11-16T20:21:33.273Z,9.10
2022-11-16T20:24:06.126Z,9.20
2022-11-16T20:26:35.192Z,9.10
2022-11-16T20:29:02.252Z,9.10
2022-11-16T20:31:30.973Z,9.20
2022-11-16T20:34:03.139Z,9.20
2022-11-16T20:36:31.493Z,9.20
2022-11-16T20:38:59.091Z,9.20
2022-11-16T20:41:28.145Z,9.20
2022-11-16T20:43:56.855Z,9.30
2022-11-16T20:46:26.216Z,9.30
2022-11-16T20:48:53.497Z,9.30
2022-11-16T20:51:20.917Z,9.20
2022-11-16T20:53:49.103Z,9.30
2022-11-16T20:56:17.069Z,9.20
2022-11-16T20:58:46.489Z,9.20
2022-11-16T21:01:27.071Z,9.30
2022-11-16T21:03:59.968Z,9.30
2022-11-16T21:06:33.105Z,9.30
2022-11-16T21:09:00.134Z,9.30
2022-11-16T21:11:30.349Z,9.30
2022-11-16T21:14:16.048Z,9.30
2022-11-16T21:16:43.007Z,9.30
2022-11-16T21:19:10.021Z,9.30
2022-11-16T21:21:38.130Z,9.30
2022-11-16T21:24:05.124Z,9.30
2022-11-16T21:26:33.061Z,9.30
2022-11-16T21:29:00.881Z,9.30
2022-11-16T21:31:29.971Z,9.30
2022-11-16T21:33:57.817Z,9.30
2022-11-16T21:36:26.016Z,9.20
2022-11-16T21:38:53.213Z,9.30
2022-11-16T21:41:21.233Z,9.20
2022-11-16T21:43:48.203Z,9.20
2022-11-16T21:46:16.868Z,9.20
2022-11-16T21:48:44.083Z,9.20
2022-11-16T21:51:12.773Z,9.10
2022-11-16T21:53:39.803Z,9.10
2022-11-16T21:56:07.993Z,9.10
2022-11-16T21:58:34.888Z,9.10
2022-11-16T22:01:02.341Z,9.00
2022-11-16T22:03:30.598Z,9.00
2022-11-16T22:06:17.818Z,9.00
2022-11-16T22:08:44.938Z,9.00
2022-11-16T22:11:12.022Z,9.00
2022-11-16T22:13:38.944Z,9.00
2022-11-16T22:16:10.591Z,9.00
2022-11-16T22:18:37.612Z,8.90
2022-11-16T22:21:04.734Z,8.90
2022-11-16T22:23:31.978Z,8.90
2022-11-16T22:26:06.865Z,8.90
2022-11-16T22:28:34.471Z,8.80
2022-11-16T22:31:05.199Z,8.80
2022-11-16T22:33:33.308Z,8.90
2022-11-16T22:36:00.519Z,8.80
2022-11-16T22:38:27.677Z,8.80
2022-11-16T22:40:56.120Z,8.80
2022-11-16T22:43:28.168Z,8.80
2022-11-16T22:45:59.305Z,8.80
2022-11-16T22:48:36.534Z,8.80
2022-11-16T22:51:18.141Z,8.80
2022-11-16T22:53:45.133Z,8.80
2022-11-16T22:56:12.163Z,8.80
2022-11-16T22:58:39.492Z,8.80
2022-11-16T23:01:07.638Z,8.80
2022-11-16T23:03:35.112Z,8.80
2022-11-16T23:06:02.486Z,8.80
2022-11-16T23:08:29.360Z,8.80
2022-11-16T23:11:23.546Z,8.80
2022-11-16T23:14:09.606Z,8.70
2022-11-16T23:16:36.487Z,8.80
2022-11-16T23:19:03.604Z,8.80
2022-11-16T23:21:48.975Z,8.80
2022-11-16T23:24:34.431Z,8.80
2022-11-16T23:27:20.859Z,8.80
2022-11-16T23:29:47.842Z,8.80
2022-11-16T23:32:14.800Z,8.70
2022-11-16T23:34:41.747Z,8.80
2022-11-16T23:37:08.636Z,8.80
2022-11-16T23:39:35.516Z,8.80
2022-11-16T23:42:20.879Z,8.80
2022-11-16T23:44:47.771Z,8.80
2022-11-16T23:47:14.683Z,8.80
2022-11-16T23:49:41.609Z,8.80
2022-11-16T23:52:08.505Z,8.80
2022-11-16T23:54:35.407Z,8.80
2022-11-16T23:57:02.310Z,8.80
2022-11-16T23:59:29.204Z,8.80
